createdAt,value
2019-04-03T00:01:37.488Z,109.94
2019-04-03T00:04:42.768Z,109.85
2019-04-03T00:07:48.044Z,109.54
2019-04-03T00:10:53.274Z,109.87
2019-04-03T00:13:58.574Z,109.02
2019-04-03T00:17:03.857Z,109.06
2019-04-03T00:20:09.195Z,110.29
2019-04-03T00:23:14.553Z,108.39
2019-04-03T00:26:21.813Z,108.69
2019-04-03T00:29:28.314Z,108.32
2019-04-03T00:32:33.674Z,108.76
2019-04-03T00:35:39.041Z,108.54
2019-04-03T00:38:44.433Z,108.82
2019-04-03T00:41:52.874Z,109.53
2019-04-03T00:44:56.802Z,109.99
2019-04-03T00:48:02.119Z,110.76
2019-04-03T00:51:07.387Z,109.86
2019-04-03T00:54:12.673Z,109.29
2019-04-03T00:57:17.924Z,108.19
2019-04-03T01:00:23.222Z,107.03
2019-04-03T01:03:28.740Z,107.51
2019-04-03T01:06:35.063Z,108.02
2019-04-03T01:09:40.377Z,107.03
2019-04-03T01:12:46.904Z,107.88
2019-04-03T01:15:52.498Z,109.02
2019-04-03T01:18:57.787Z,108.70
2019-04-03T01:22:03.124Z,109.35
2019-04-03T01:25:09.372Z,103.94
2019-04-03T01:28:15.039Z,104.94
2019-04-03T01:31:20.301Z,106.09
2019-04-03T01:34:25.607Z,106.34
2019-04-03T01:37:31.038Z,107.05
2019-04-03T01:40:36.416Z,107.41
2019-04-03T01:43:41.664Z,107.80
2019-04-03T01:46:46.989Z,107.80
2019-04-03T01:49:52.294Z,107.73
2019-04-03T01:52:57.816Z,106.23
2019-04-03T01:56:05.086Z,106.67
2019-04-03T01:59:10.075Z,106.69
2019-04-03T02:02:15.319Z,106.42
2019-04-03T02:05:20.742Z,106.89
2019-04-03T02:08:26.108Z,106.80
2019-04-03T02:11:31.528Z,105.75
2019-04-03T02:14:36.864Z,106.09
2019-04-03T02:17:42.301Z,105.09
2019-04-03T02:20:50.558Z,106.29
2019-04-03T02:23:56.102Z,106.55
2019-04-03T02:27:03.117Z,107.32
2019-04-03T02:30:12.346Z,106.93
2019-04-03T02:33:16.577Z,107.74
2019-04-03T02:36:22.013Z,107.86
2019-04-03T02:39:27.735Z,108.31
2019-04-03T02:42:33.885Z,108.29
2019-04-03T02:45:39.238Z,109.27
2019-04-03T02:48:44.534Z,109.11
2019-04-03T02:51:53.270Z,108.54
2019-04-03T02:54:57.221Z,108.70
2019-04-03T02:58:02.721Z,109.58
2019-04-03T03:01:08.748Z,109.72
2019-04-03T03:04:14.142Z,110.48
2019-04-03T03:07:19.964Z,109.49
2019-04-03T03:10:25.884Z,108.64
2019-04-03T03:13:34.471Z,109.32
2019-04-03T03:16:39.334Z,110.12
2019-04-03T03:19:44.787Z,110.77
2019-04-03T03:22:51.154Z,110.02
2019-04-03T03:25:58.238Z,108.38
2019-04-03T03:29:16.563Z,108.57
2019-04-03T03:32:18.849Z,109.49
2019-04-03T03:35:27.903Z,109.44
2019-04-03T03:38:28.138Z,109.52
2019-04-03T03:41:33.766Z,109.86
2019-04-03T03:44:43.219Z,110.05
2019-04-03T03:47:46.696Z,108.65
2019-04-03T03:50:55.507Z,109.10
2019-04-03T03:53:59.822Z,109.44
2019-04-03T03:57:07.271Z,109.13
2019-04-03T04:00:12.555Z,107.80
2019-04-03T04:03:18.083Z,108.11
2019-04-03T04:06:27.926Z,107.93
2019-04-03T04:09:31.050Z,108.73
2019-04-03T04:12:39.822Z,109.29
2019-04-03T04:15:44.963Z,108.89
2019-04-03T04:18:50.997Z,108.96
2019-04-03T04:21:56.758Z,109.13
2019-04-03T04:25:05.349Z,109.55
2019-04-03T04:28:10.715Z,109.47
2019-04-03T04:31:17.978Z,109.35
2019-04-03T04:34:22.956Z,109.25
2019-04-03T04:37:30.048Z,109.61
2019-04-03T04:40:35.573Z,109.43
2019-04-03T04:43:41.111Z,108.84
2019-04-03T04:46:46.327Z,108.91
2019-04-03T04:49:51.757Z,108.57
2019-04-03T04:52:59.399Z,108.45
2019-04-03T04:56:06.581Z,109.46
2019-04-03T04:59:13.986Z,110.37
2019-04-03T05:02:20.224Z,110.83
2019-04-03T05:05:27.201Z,111.21
2019-04-03T05:08:33.587Z,111.24
2019-04-03T05:11:40.242Z,109.77
2019-04-03T05:14:46.860Z,107.75
2019-04-03T05:17:52.625Z,107.31
2019-04-03T05:20:57.956Z,107.21
2019-04-03T05:24:11.487Z,105.53
2019-04-03T05:27:10.456Z,104.65
2019-04-03T05:30:29.224Z,104.88
2019-04-03T05:33:35.497Z,104.82
2019-04-03T05:36:40.806Z,104.13
2019-04-03T05:39:46.033Z,103.87
2019-04-03T05:42:51.410Z,104.16
2019-04-03T05:45:56.652Z,104.31
2019-04-03T05:49:01.923Z,104.41
2019-04-03T05:52:08.125Z,103.92
2019-04-03T05:55:13.518Z,104.32
2019-04-03T05:58:19.001Z,103.71
2019-04-03T06:01:24.492Z,104.03
2019-04-03T06:04:29.921Z,102.62
2019-04-03T06:07:35.353Z,102.65
2019-04-03T06:10:40.720Z,101.98
2019-04-03T06:13:48.051Z,101.84
2019-04-03T06:16:55.521Z,101.24
2019-04-03T06:20:00.137Z,101.11
2019-04-03T06:23:05.482Z,100.91
2019-04-03T06:26:11.097Z,99.94
2019-04-03T06:29:18.441Z,99.11
2019-04-03T06:32:24.834Z,98.48
2019-04-03T06:35:30.420Z,97.98
2019-04-03T06:38:35.772Z,98.56
2019-04-03T06:41:42.080Z,97.50
2019-04-03T06:44:48.086Z,96.69
2019-04-03T06:47:53.376Z,95.00
2019-04-03T06:50:58.701Z,94.54
2019-04-03T06:54:06.941Z,95.22
2019-04-03T06:57:13.332Z,94.76
2019-04-03T07:00:18.015Z,95.25
2019-04-03T07:03:23.237Z,93.33
2019-04-03T07:06:28.877Z,95.94
2019-04-03T07:09:36.706Z,92.35
2019-04-03T07:12:41.255Z,89.74
2019-04-03T07:15:46.771Z,91.89
2019-04-03T07:19:00.272Z,92.65
2019-04-03T07:22:05.648Z,90.91
2019-04-03T07:25:13.582Z,91.19
2019-04-03T07:28:22.066Z,90.33
2019-04-03T07:31:27.487Z,92.77
2019-04-03T07:34:34.266Z,93.03
2019-04-03T07:37:39.969Z,92.69
2019-04-03T07:40:45.427Z,91.50
2019-04-03T07:43:50.704Z,90.48
2019-04-03T07:46:55.973Z,90.91
2019-04-03T07:50:01.262Z,89.10
2019-04-03T07:53:07.815Z,90.86
2019-04-03T07:56:13.352Z,89.85
2019-04-03T07:59:18.822Z,90.66
2019-04-03T08:02:26.901Z,88.20
2019-04-03T08:05:31.692Z,85.01
2019-04-03T08:08:39.584Z,86.78
2019-04-03T08:11:44.986Z,86.33
2019-04-03T08:14:51.255Z,87.15
2019-04-03T08:17:57.815Z,85.69
2019-04-03T08:21:03.307Z,87.36
2019-04-03T08:24:08.689Z,83.48
2019-04-03T08:27:14.178Z,86.75
2019-04-03T08:30:20.056Z,87.74
2019-04-03T08:33:27.471Z,88.38
2019-04-03T08:36:32.949Z,88.62
2019-04-03T08:39:38.304Z,86.66
2019-04-03T08:42:43.714Z,85.85
2019-04-03T08:45:50.679Z,85.39
2019-04-03T08:48:59.519Z,84.46
2019-04-03T08:52:05.657Z,82.09
2019-04-03T08:55:14.154Z,83.40
2019-04-03T08:58:20.974Z,81.51
2019-04-03T09:01:25.556Z,84.33
2019-04-03T09:04:30.846Z,85.88
2019-04-03T09:07:36.095Z,83.65
2019-04-03T09:10:41.370Z,83.47
2019-04-03T09:13:46.614Z,80.73
2019-04-03T09:16:52.007Z,81.90
2019-04-03T09:19:57.453Z,81.98
2019-04-03T09:23:02.757Z,81.25
2019-04-03T09:26:08.044Z,83.57
2019-04-03T09:29:15.458Z,79.51
2019-04-03T09:32:20.903Z,79.57
2019-04-03T09:35:27.654Z,80.23
2019-04-03T09:38:35.315Z,80.28
2019-04-03T09:41:40.105Z,78.19
2019-04-03T09:44:46.461Z,78.22
2019-04-03T09:47:51.857Z,81.06
2019-04-03T09:50:57.139Z,82.57
2019-04-03T09:54:02.491Z,75.93
2019-04-03T09:57:07.742Z,74.84
2019-04-03T10:00:14.820Z,76.98
2019-04-03T10:03:20.856Z,76.25
2019-04-03T10:06:30.389Z,74.01
2019-04-03T10:09:34.218Z,75.77
2019-04-03T10:12:39.499Z,75.29
2019-04-03T10:15:44.799Z,74.80
2019-04-03T10:18:50.272Z,76.79
2019-04-03T10:21:55.630Z,77.28
2019-04-03T10:25:04.851Z,78.61
2019-04-03T10:28:08.000Z,79.87
2019-04-03T10:31:13.265Z,84.79
2019-04-03T10:34:18.526Z,87.04
2019-04-03T10:37:23.751Z,85.88
2019-04-03T10:40:29.115Z,88.72
2019-04-03T10:43:36.651Z,88.26
2019-04-03T10:46:41.466Z,87.48
2019-04-03T10:49:47.082Z,85.84
2019-04-03T10:52:52.530Z,86.24
2019-04-03T10:55:59.685Z,88.15
2019-04-03T10:59:11.519Z,87.47
2019-04-03T11:02:13.640Z,86.06
2019-04-03T11:05:19.368Z,85.66
2019-04-03T11:08:24.776Z,85.39
2019-04-03T11:11:30.246Z,84.64
2019-04-03T11:14:38.513Z,86.07
2019-04-03T11:17:42.943Z,85.01
2019-04-03T11:20:48.265Z,86.49
2019-04-03T11:23:53.694Z,86.88
2019-04-03T11:26:59.217Z,84.59
2019-04-03T11:30:10.991Z,84.05
2019-04-03T11:33:17.515Z,84.79
2019-04-03T11:36:29.551Z,86.39
2019-04-03T11:39:32.534Z,87.71
2019-04-03T11:42:37.912Z,89.69
2019-04-03T11:45:43.342Z,89.61
2019-04-03T11:48:49.183Z,90.98
2019-04-03T11:51:54.693Z,93.54
2019-04-03T11:55:00.269Z,89.83
2019-04-03T11:58:06.072Z,89.97
2019-04-03T12:01:11.933Z,88.65
2019-04-03T12:04:17.635Z,93.44
2019-04-03T12:07:24.744Z,91.52
2019-04-03T12:10:32.821Z,90.49
2019-04-03T12:13:39.213Z,91.77
2019-04-03T12:16:44.873Z,93.38
2019-04-03T12:19:50.219Z,93.65
2019-04-03T12:22:56.963Z,96.08
2019-04-03T12:26:02.486Z,98.90
2019-04-03T12:29:08.388Z,103.42
2019-04-03T12:32:13.945Z,106.38
2019-04-03T12:35:19.623Z,108.80
2019-04-03T12:38:25.036Z,111.71
2019-04-03T12:41:31.957Z,111.57
2019-04-03T12:44:37.398Z,112.32
2019-04-03T12:47:47.704Z,113.48
2019-04-03T12:50:53.322Z,113.16
2019-04-03T12:53:59.966Z,112.18
2019-04-03T12:57:05.577Z,111.44
2019-04-03T13:00:13.482Z,108.48
2019-04-03T13:03:19.445Z,109.36
2019-04-03T13:06:25.031Z,106.48
2019-04-03T13:09:30.666Z,105.04
2019-04-03T13:12:36.113Z,105.16
2019-04-03T13:15:41.468Z,105.69
2019-04-03T13:18:50.582Z,106.73
2019-04-03T13:21:57.013Z,104.45
2019-04-03T13:25:05.388Z,106.93
2019-04-03T13:28:10.683Z,109.53
2019-04-03T13:31:16.349Z,109.80
2019-04-03T13:34:21.945Z,112.57
2019-04-03T13:37:27.736Z,113.05
2019-04-03T13:40:36.425Z,113.82
2019-04-03T13:43:40.756Z,112.69
2019-04-03T13:46:46.292Z,111.67
2019-04-03T13:49:52.059Z,111.19
2019-04-03T13:52:57.457Z,110.75
2019-04-03T13:56:05.338Z,110.05
2019-04-03T13:59:10.795Z,110.54
2019-04-03T14:02:16.224Z,110.36
2019-04-03T14:05:21.965Z,110.93
2019-04-03T14:08:28.853Z,110.46
2019-04-03T14:11:34.313Z,110.30
2019-04-03T14:14:39.923Z,110.96
2019-04-03T14:17:55.156Z,109.13
2019-04-03T14:20:55.298Z,108.34
2019-04-03T14:23:59.389Z,108.28
2019-04-03T14:27:17.158Z,107.45
2019-04-03T14:30:14.419Z,108.61
2019-04-03T14:33:21.280Z,109.00
2019-04-03T14:36:27.456Z,107.49
2019-04-03T14:39:33.209Z,107.10
2019-04-03T14:42:38.673Z,107.58
2019-04-03T14:45:45.191Z,109.63
2019-04-03T14:48:53.253Z,109.56
2019-04-03T14:51:58.787Z,111.35
2019-04-03T14:55:16.587Z,110.06
2019-04-03T14:58:12.049Z,108.73
2019-04-03T15:01:19.868Z,106.51
2019-04-03T15:04:27.469Z,107.64
2019-04-03T15:07:33.042Z,106.95
2019-04-03T15:10:38.538Z,106.83
2019-04-03T15:13:44.256Z,106.85
2019-04-03T15:16:50.005Z,107.48
2019-04-03T15:19:57.069Z,107.00
2019-04-03T15:23:04.804Z,107.92
2019-04-03T15:26:09.278Z,107.89
2019-04-03T15:29:14.697Z,107.05
2019-04-03T15:32:20.478Z,106.74
2019-04-03T15:35:25.885Z,106.48
2019-04-03T15:38:31.196Z,106.38
2019-04-03T15:41:36.999Z,107.86
2019-04-03T15:44:42.507Z,108.06
2019-04-03T15:47:49.687Z,103.86
2019-04-03T15:50:55.495Z,103.19
2019-04-03T15:54:03.818Z,103.42
2019-04-03T15:57:09.129Z,104.42
2019-04-03T16:00:15.702Z,107.50
2019-04-03T16:03:21.255Z,107.59
2019-04-03T16:06:26.622Z,108.38
2019-04-03T16:09:32.328Z,108.14
2019-04-03T16:12:41.502Z,107.32
2019-04-03T16:15:44.742Z,107.66
2019-04-03T16:18:50.571Z,108.00
2019-04-03T16:21:57.659Z,107.99
2019-04-03T16:25:03.699Z,108.25
2019-04-03T16:28:12.936Z,111.22
2019-04-03T16:31:17.980Z,111.76
2019-04-03T16:34:24.367Z,111.82
2019-04-03T16:37:29.986Z,111.10
2019-04-03T16:40:37.783Z,111.45
2019-04-03T16:43:42.674Z,110.26
2019-04-03T16:46:48.077Z,111.14
2019-04-03T16:49:54.843Z,112.14
2019-04-03T16:53:00.691Z,113.59
2019-04-03T16:56:07.061Z,113.84
2019-04-03T16:59:12.812Z,113.78
2019-04-03T17:02:23.897Z,115.00
2019-04-03T17:05:28.901Z,114.51
2019-04-03T17:08:35.137Z,113.75
2019-04-03T17:11:43.501Z,113.64
2019-04-03T17:14:47.537Z,113.70
2019-04-03T17:17:52.829Z,113.61
2019-04-03T17:20:58.439Z,113.92
2019-04-03T17:24:04.993Z,113.50
2019-04-03T17:27:10.560Z,113.50
2019-04-03T17:30:18.346Z,113.86
2019-04-03T17:33:23.503Z,114.24
2019-04-03T17:36:30.466Z,114.33
2019-04-03T17:39:36.265Z,114.66
2019-04-03T17:42:42.151Z,115.00
2019-04-03T17:45:47.654Z,114.88
2019-04-03T17:48:53.712Z,114.72
2019-04-03T17:52:00.138Z,114.32
2019-04-03T17:55:07.873Z,113.65
2019-04-03T17:58:16.449Z,113.02
2019-04-03T18:01:22.200Z,113.87
2019-04-03T18:04:29.078Z,114.61
2019-04-03T18:07:37.032Z,114.69
2019-04-03T18:10:42.575Z,114.72
2019-04-03T18:13:49.560Z,114.87
2019-04-03T18:16:54.834Z,114.78
2019-04-03T18:20:00.170Z,115.43
2019-04-03T18:23:05.566Z,116.36
2019-04-03T18:26:11.022Z,116.60
2019-04-03T18:29:16.368Z,116.56
2019-04-03T18:32:21.791Z,116.26
2019-04-03T18:35:27.221Z,116.49
2019-04-03T18:38:32.682Z,116.33
2019-04-03T18:41:38.073Z,115.95
2019-04-03T18:44:43.507Z,116.67
2019-04-03T18:47:51.032Z,116.67
2019-04-03T18:50:58.105Z,116.66
2019-04-03T18:54:03.816Z,116.78
2019-04-03T18:57:09.338Z,117.23
2019-04-03T19:00:15.131Z,117.15
2019-04-03T19:03:20.616Z,117.16
2019-04-03T19:06:25.947Z,117.40
2019-04-03T19:09:31.453Z,117.39
2019-04-03T19:12:36.905Z,117.35
2019-04-03T19:15:43.486Z,117.49
2019-04-03T19:18:49.234Z,117.07
2019-04-03T19:21:56.666Z,117.12
2019-04-03T19:25:02.127Z,117.33
2019-04-03T19:28:07.502Z,117.82
2019-04-03T19:31:12.809Z,118.12
2019-04-03T19:34:20.258Z,118.01
2019-04-03T19:37:25.137Z,118.00
2019-04-03T19:40:30.573Z,117.87
2019-04-03T19:43:35.896Z,117.87
2019-04-03T19:46:41.204Z,117.68
2019-04-03T19:49:48.027Z,117.84
2019-04-03T19:52:53.586Z,117.97
2019-04-03T19:55:58.882Z,118.60
2019-04-03T19:59:04.954Z,118.88
2019-04-03T20:02:10.427Z,118.86
2019-04-03T20:05:18.655Z,119.00
2019-04-03T20:08:22.990Z,119.00
2019-04-03T20:11:28.479Z,119.00
2019-04-03T20:14:33.813Z,119.00
2019-04-03T20:17:39.142Z,119.00
2019-04-03T20:20:45.527Z,119.00
2019-04-03T20:23:50.859Z,118.03
2019-04-03T20:26:56.256Z,117.62
2019-04-03T20:30:03.151Z,117.84
2019-04-03T20:33:11.421Z,117.95
2019-04-03T20:36:16.790Z,117.65
2019-04-03T20:39:24.402Z,117.52
2019-04-03T20:42:29.696Z,118.16
2019-04-03T20:45:34.995Z,118.69
2019-04-03T20:48:40.307Z,118.77
2019-04-03T20:51:48.447Z,118.87
2019-04-03T20:54:53.175Z,119.00
2019-04-03T20:57:59.151Z,119.00
2019-04-03T21:01:07.313Z,119.00
2019-04-03T21:04:15.456Z,119.00
2019-04-03T21:07:23.746Z,119.00
2019-04-03T21:10:27.825Z,119.00
2019-04-03T21:13:33.138Z,119.00
2019-04-03T21:16:38.444Z,119.00
2019-04-03T21:19:43.765Z,119.00
2019-04-03T21:22:50.082Z,119.00
2019-04-03T21:25:55.396Z,119.00
2019-04-03T21:29:00.694Z,119.00
2019-04-03T21:32:06.231Z,119.00
2019-04-03T21:35:13.263Z,119.00
2019-04-03T21:38:22.578Z,119.00
2019-04-03T21:41:27.845Z,119.00
2019-04-03T21:44:33.131Z,119.00
2019-04-03T21:47:38.525Z,119.00
2019-04-03T21:50:43.737Z,119.00
2019-04-03T21:53:49.033Z,119.00
2019-04-03T21:56:54.336Z,119.00
2019-04-03T21:59:59.560Z,119.00
2019-04-03T22:03:06.817Z,119.00
2019-04-03T22:06:11.921Z,119.00
2019-04-03T22:09:17.252Z,119.00
2019-04-03T22:12:22.730Z,119.00
2019-04-03T22:15:28.036Z,119.00
2019-04-03T22:18:34.655Z,119.00
2019-04-03T22:21:39.967Z,119.00
2019-04-03T22:24:45.273Z,119.00
2019-04-03T22:27:50.511Z,119.00
2019-04-03T22:30:57.209Z,119.00
2019-04-03T22:34:02.491Z,119.00
2019-04-03T22:37:07.862Z,119.00
2019-04-03T22:40:13.430Z,119.00
2019-04-03T22:43:18.701Z,119.00
2019-04-03T22:46:24.092Z,119.00
2019-04-03T22:49:33.584Z,119.00
2019-04-03T22:52:38.057Z,119.00
2019-04-03T22:55:46.401Z,119.00
2019-04-03T22:58:52.865Z,119.00
2019-04-03T23:02:00.685Z,119.00
2019-04-03T23:05:05.980Z,119.00
2019-04-03T23:08:12.196Z,119.00
2019-04-03T23:11:17.526Z,119.00
2019-04-03T23:14:22.825Z,119.00
2019-04-03T23:17:28.246Z,119.00
2019-04-03T23:20:33.585Z,119.00
2019-04-03T23:23:38.951Z,119.00
2019-04-03T23:26:44.192Z,119.00
2019-04-03T23:29:49.416Z,119.00
2019-04-03T23:32:54.730Z,119.00
2019-04-03T23:36:00.070Z,119.00
2019-04-03T23:39:08.000Z,119.00
2019-04-03T23:42:13.273Z,119.00
2019-04-03T23:45:19.435Z,119.00
2019-04-03T23:48:24.732Z,119.00
2019-04-03T23:51:30.212Z,119.00
2019-04-03T23:54:35.721Z,119.00
2019-04-03T23:57:41.111Z,119.00
